Time;durP1;ratioP1;P1;durP2;ratioP2;P2;SDS_P1;SDS_P2;PMS_P1;PMS_P2;Temp;Humidity;BMP_temperature;BMP_pressure;BME280_temperature;BME280_humidity;BME280_pressure;Samples;Min_cycle;Max_cycle;Signal;HPM_P1;HPM_P2
2021/07/08 00:00:10;;;;;;;;;;;;;;;21.05;58.87;101638.03;5037777;28;925;-62
2021/07/08 00:02:35;;;;;;;;;;;;;;;21.04;58.81;101638.19;5037358;28;1866;-62
2021/07/08 00:05:00;;;;;;;;;;;;;;;21.02;58.74;101643.75;5037583;28;1977;-61
2021/07/08 00:07:25;;;;;;;;;;;;;;;21.03;58.60;101644.59;5035090;28;917;-61
2021/07/08 00:09:51;;;;;;;;;;;;;;;21.02;59.40;101642.91;5038122;28;870;-59
2021/07/08 00:12:16;;;;;;;;;;;;;;;21.02;59.02;101637.47;5037801;28;823;-60
2021/07/08 00:14:41;;;;;;;;;;;;;;;21.02;59.19;101641.03;5037314;28;1002;-60
2021/07/08 00:17:07;;;;;;;;;;;;;;;21.00;58.90;101644.91;5037760;28;949;-60
2021/07/08 00:19:32;;;;;;;;;;;;;;;21.01;58.31;101646.59;5036813;28;2009;-60
2021/07/08 00:21:57;;;;;;;;;;;;;;;20.98;59.28;101638.75;5037466;28;957;-60
2021/07/08 00:24:22;;;;;;;;;;;;;;;20.98;59.35;101645.03;5037468;28;1979;-60
2021/07/08 00:26:47;;;;;;;;;;;;;;;20.98;59.04;101641.47;5037647;28;919;-60
2021/07/08 00:29:12;;;;;;;;;;;;;;;20.97;58.90;101650.59;5037061;28;1997;-60
2021/07/08 00:31:37;;;;;;;;;;;;;;;20.95;58.87;101652.63;5037271;28;985;-60
2021/07/08 00:34:03;;;;;;;;;;;;;;;20.94;58.86;101643.66;5037051;28;823;-59
2021/07/08 00:36:28;;;;;;;;;;;;;;;20.92;59.21;101640.22;5036842;28;2008;-60
2021/07/08 00:38:53;;;;;;;;;;;;;;;20.93;58.69;101638.38;5036974;28;1867;-60
2021/07/08 00:41:18;;;;;;;;;;;;;;;20.93;59.06;101639.22;5037344;28;998;-60
2021/07/08 00:43:43;;;;;;;;;;;;;;;20.91;58.64;101630.38;5036419;28;1890;-60
2021/07/08 00:46:08;;;;;;;;;;;;;;;20.91;58.77;101629.53;5036713;28;854;-60
2021/07/08 00:48:33;;;;;;;;;;;;;;;20.90;59.07;101628.69;5036943;28;1612;-60
2021/07/08 00:50:58;;;;;;;;;;;;;;;20.89;59.24;101634.25;5037059;28;783;-60
2021/07/08 00:53:23;;;;;;;;;;;;;;;20.89;58.50;101636.94;5036223;28;1708;-60
2021/07/08 00:55:48;;;;;;;;;;;;;;;20.89;58.62;101637.81;5036212;28;1682;-62
2021/07/08 00:58:13;;;;;;;;;;;;;;;20.88;58.92;101641.53;5036998;28;1624;-61
2021/07/08 01:00:39;;;;;;;;;;;;;;;20.89;58.98;101639.66;5036750;28;930;-61
2021/07/08 01:03:08;;;;;;;;;;;;;;;20.87;58.65;101641.66;5035177;28;1897;-61
2021/07/08 01:05:33;;;;;;;;;;;;;;;20.86;59.19;101640.81;5036610;28;913;-60
2021/07/08 01:07:58;;;;;;;;;;;;;;;20.85;58.79;101635.53;5036718;28;1655;-60
2021/07/08 01:10:23;;;;;;;;;;;;;;;20.84;58.49;101634.69;5036212;28;2015;-59
2021/07/08 01:12:49;;;;;;;;;;;;;;;20.84;58.77;101633.81;5035979;28;858;-59
2021/07/08 01:15:14;;;;;;;;;;;;;;;20.83;58.57;101632.09;5036817;28;997;-59
2021/07/08 01:17:39;;;;;;;;;;;;;;;20.83;58.55;101634.81;5036489;28;853;-59
2021/07/08 01:20:04;;;;;;;;;;;;;;;20.83;58.82;101638.38;5036177;28;1109;-59
2021/07/08 01:22:29;;;;;;;;;;;;;;;20.83;58.64;101638.38;5036191;28;1017;-58
2021/07/08 01:24:54;;;;;;;;;;;;;;;20.84;59.37;101639.25;5036450;28;2005;-58
2021/07/08 01:27:19;;;;;;;;;;;;;;;20.83;59.07;101642.94;5036420;28;1958;-59
2021/07/08 01:29:44;;;;;;;;;;;;;;;20.82;59.41;101635.81;5036291;28;1064;-60
2021/07/08 01:32:09;;;;;;;;;;;;;;;20.83;58.71;101642.94;5036365;28;1637;-59
2021/07/08 01:34:34;;;;;;;;;;;;;;;20.81;59.38;101651.22;5035951;28;2002;-61
2021/07/08 01:36:59;;;;;;;;;;;;;;;20.80;58.83;101652.22;5036359;28;922;-60
2021/07/08 01:39:25;;;;;;;;;;;;;;;20.79;59.30;101643.25;5035634;28;989;-60
2021/07/08 01:41:50;;;;;;;;;;;;;;;20.80;59.06;101646.81;5036072;28;898;-59
2021/07/08 01:44:15;;;;;;;;;;;;;;;20.78;59.58;101648.81;5035259;28;1898;-59
2021/07/08 01:46:40;;;;;;;;;;;;;;;20.78;58.83;101651.53;5035789;28;914;-59
2021/07/08 01:49:06;;;;;;;;;;;;;;;20.77;58.90;101647.13;5035521;28;2087;-59
2021/07/08 01:51:31;;;;;;;;;;;;;;;20.77;59.12;101655.25;5035536;28;810;-59
2021/07/08 01:53:56;;;;;;;;;;;;;;;20.75;59.65;101655.38;5035922;28;936;-59
2021/07/08 01:56:21;;;;;;;;;;;;;;;20.75;59.69;101662.66;5035445;28;1874;-59
2021/07/08 01:58:46;;;;;;;;;;;;;;;20.74;59.49;101661.81;5035118;28;1953;-59
2021/07/08 02:01:11;;;;;;;;;;;;;;;20.75;59.12;101665.38;5035992;28;859;-59
2021/07/08 02:03:37;;;;;;;;;;;;;;;20.74;59.53;101671.78;5035625;28;1911;-58
2021/07/08 02:06:02;;;;;;;;;;;;;;;20.74;59.05;101666.38;5035339;28;2052;-59
2021/07/08 02:08:27;;;;;;;;;;;;;;;20.71;58.96;101662.09;5035755;28;1740;-59
2021/07/08 02:10:52;;;;;;;;;;;;;;;20.72;58.95;101662.94;5034049;28;750;-58
2021/07/08 02:13:17;;;;;;;;;;;;;;;20.72;58.98;101657.53;5035636;28;858;-59
2021/07/08 02:15:42;;;;;;;;;;;;;;;20.70;58.84;101659.53;5035204;28;1909;-59
2021/07/08 02:18:07;;;;;;;;;;;;;;;20.71;59.12;101650.41;5035117;28;1049;-58
2021/07/08 02:20:32;;;;;;;;;;;;;;;20.70;59.40;101645.97;5035236;28;1843;-58
2021/07/08 02:22:57;;;;;;;;;;;;;;;20.69;59.59;101633.44;5035002;28;1914;-58
2021/07/08 02:25:22;;;;;;;;;;;;;;;20.69;58.67;101638.84;5035476;28;944;-58
2021/07/08 02:27:48;;;;;;;;;;;;;;;20.67;59.10;101641.72;5034811;28;1037;-58
2021/07/08 02:30:13;;;;;;;;;;;;;;;20.66;59.76;101631.00;5034778;28;815;-58
2021/07/08 02:32:38;;;;;;;;;;;;;;;20.66;59.43;101636.44;5035380;28;843;-58
2021/07/08 02:35:03;;;;;;;;;;;;;;;20.65;59.03;101632.00;5035632;28;1068;-60
2021/07/08 02:37:28;;;;;;;;;;;;;;;20.65;59.49;101632.00;5034831;28;1931;-60
2021/07/08 02:39:53;;;;;;;;;;;;;;;20.64;59.49;101638.44;5035037;28;1579;-59
2021/07/08 02:42:18;;;;;;;;;;;;;;;20.65;58.67;101640.13;5033916;28;1143;-60
2021/07/08 02:44:43;;;;;;;;;;;;;;;20.63;58.98;101642.13;5035199;28;1977;-59
2021/07/08 02:47:08;;;;;;;;;;;;;;;20.64;59.37;101638.44;5034883;28;2105;-58
2021/07/08 02:49:33;;;;;;;;;;;;;;;20.64;59.03;101633.00;5035448;28;847;-58
2021/07/08 02:51:58;;;;;;;;;;;;;;;20.63;59.10;101636.72;5034887;28;807;-61
2021/07/08 02:54:23;;;;;;;;;;;;;;;20.63;58.99;101632.16;5034995;28;1972;-61
2021/07/08 02:56:49;;;;;;;;;;;;;;;20.62;59.10;101635.84;5035053;28;898;-61
2021/07/08 02:59:14;;;;;;;;;;;;;;;20.60;59.11;101626.19;5035178;28;858;-61
2021/07/08 03:01:39;;;;;;;;;;;;;;;20.60;59.12;101631.63;5034735;28;875;-61
2021/07/08 03:04:05;;;;;;;;;;;;;;;20.59;59.38;101630.75;5033150;28;1953;-61
2021/07/08 03:06:30;;;;;;;;;;;;;;;20.59;59.42;101619.94;5035394;28;2049;-61
2021/07/08 03:08:55;;;;;;;;;;;;;;;20.59;59.20;101622.63;5034879;28;862;-59
2021/07/08 03:11:23;;;;;;;;;;;;;;;20.58;59.65;101614.66;5034971;28;997;-59
2021/07/08 03:13:48;;;;;;;;;;;;;;;20.57;60.06;101627.34;5034608;28;1989;-58
2021/07/08 03:16:13;;;;;;;;;;;;;;;20.57;59.70;101630.06;5035119;28;941;-59
2021/07/08 03:18:38;;;;;;;;;;;;;;;20.58;59.23;101625.50;5034942;28;1708;-59
2021/07/08 03:21:03;;;;;;;;;;;;;;;20.58;58.79;101629.06;5034578;28;945;-60
2021/07/08 03:23:28;;;;;;;;;;;;;;;20.56;59.55;101630.19;5034231;28;1910;-60
2021/07/08 03:25:53;;;;;;;;;;;;;;;20.54;59.01;101622.22;5034936;28;941;-60
2021/07/08 03:28:19;;;;;;;;;;;;;;;20.55;59.12;101617.66;5034380;28;1969;-60
2021/07/08 03:30:44;;;;;;;;;;;;;;;20.54;59.18;101627.63;5015011;28;768;-60
2021/07/08 03:33:09;;;;;;;;;;;;;;;20.54;58.90;101626.78;5015426;28;1978;-59
2021/07/08 03:35:34;;;;;;;;;;;;;;;20.54;59.79;101632.19;5034429;28;907;-58
2021/07/08 03:37:59;;;;;;;;;;;;;;;20.52;59.33;101626.91;5035302;28;1529;-58
2021/07/08 03:40:24;;;;;;;;;;;;;;;20.54;59.21;101630.34;5034387;28;928;-58
2021/07/08 03:42:49;;;;;;;;;;;;;;;20.53;59.78;101641.31;5035389;28;1973;-59
2021/07/08 03:45:15;;;;;;;;;;;;;;;20.55;59.29;101642.03;5038551;28;1957;-58
2021/07/08 03:47:40;;;;;;;;;;;;;;;20.54;58.92;101643.88;5038129;28;906;-58
2021/07/08 03:50:05;;;;;;;;;;;;;;;20.54;59.79;101649.28;5038334;28;890;-59
2021/07/08 03:52:30;;;;;;;;;;;;;;;20.53;58.95;101652.13;5038255;28;830;-59
2021/07/08 03:54:55;;;;;;;;;;;;;;;20.53;59.70;101657.56;5037928;28;2105;-59
2021/07/08 03:57:20;;;;;;;;;;;;;;;20.51;58.79;101665.81;5036167;28;950;-58
2021/07/08 03:59:45;;;;;;;;;;;;;;;20.56;59.48;101662.69;5037909;28;1181;-59
2021/07/08 04:02:10;;;;;;;;;;;;;;;20.55;59.24;101669.09;5037833;28;1069;-60
2021/07/08 04:04:38;;;;;;;;;;;;;;;20.57;58.67;101667.97;5037790;28;1932;-59
2021/07/08 04:07:03;;;;;;;;;;;;;;;20.59;58.89;101662.41;5037948;28;1996;-60
2021/07/08 04:09:28;;;;;;;;;;;;;;;20.60;59.14;101661.41;5037738;28;1964;-60
2021/07/08 04:11:53;;;;;;;;;;;;;;;20.58;58.60;101660.69;5037775;28;914;-59
2021/07/08 04:14:18;;;;;;;;;;;;;;;20.60;59.17;101654.09;5037442;28;1845;-58
2021/07/08 04:16:43;;;;;;;;;;;;;;;20.61;59.05;101663.09;5037944;28;1080;-59
2021/07/08 04:19:08;;;;;;;;;;;;;;;20.57;59.17;101659.84;5037304;28;951;-59
2021/07/08 04:21:33;;;;;;;;;;;;;;;20.55;58.60;101661.84;5037553;28;1918;-60
2021/07/08 04:23:59;;;;;;;;;;;;;;;20.54;59.03;101665.53;5037241;28;1979;-60
2021/07/08 04:26:24;;;;;;;;;;;;;;;20.52;59.81;101663.97;5037627;28;877;-59
2021/07/08 04:28:49;;;;;;;;;;;;;;;20.52;59.07;101661.25;5037217;28;803;-59
2021/07/08 04:31:16;;;;;;;;;;;;;;;20.53;59.39;101654.84;5037161;28;1530;-59
2021/07/08 04:33:41;;;;;;;;;;;;;;;20.52;58.94;101655.84;5037268;28;1981;-59
2021/07/08 04:36:06;;;;;;;;;;;;;;;20.52;59.31;101656.69;5037119;28;831;-59
2021/07/08 04:38:31;;;;;;;;;;;;;;;20.54;59.02;101654.72;5037266;28;815;-59
2021/07/08 04:40:56;;;;;;;;;;;;;;;20.55;58.54;101652.84;5035324;28;1643;-59
2021/07/08 04:43:21;;;;;;;;;;;;;;;20.55;59.35;101648.28;5037275;28;1898;-60
2021/07/08 04:45:46;;;;;;;;;;;;;;;20.57;58.79;101658.97;5037533;28;1009;-60
2021/07/08 04:48:11;;;;;;;;;;;;;;;20.61;58.52;101660.38;5036734;28;1891;-61
2021/07/08 04:50:36;;;;;;;;;;;;;;;20.66;58.61;101658.09;5036697;28;1599;-61
2021/07/08 04:53:01;;;;;;;;;;;;;;;20.75;58.63;101659.94;5036668;28;1956;-60
2021/07/08 04:55:27;;;;;;;;;;;;;;;20.71;58.39;101672.94;5036941;28;839;-60
2021/07/08 04:57:52;;;;;;;;;;;;;;;20.69;59.07;101671.34;5036670;28;1788;-59
2021/07/08 05:00:21;;;;;;;;;;;;;;;20.64;58.44;101660.94;5036417;28;1602;-61
2021/07/08 05:02:46;;;;;;;;;;;;;;;20.65;58.54;101676.19;5041541;28;1705;-61
2021/07/08 05:05:11;;;;;;;;;;;;;;;20.67;59.12;101674.22;5040941;28;1955;-60
2021/07/08 05:07:36;;;;;;;;;;;;;;;20.67;58.63;101678.78;5036326;28;1626;-60
2021/07/08 05:10:01;;;;;;;;;;;;;;;20.70;58.67;101679.34;5036522;28;867;-59
2021/07/08 05:12:26;;;;;;;;;;;;;;;20.74;58.93;101683.47;5035862;28;1571;-60
2021/07/08 05:14:51;;;;;;;;;;;;;;;20.78;58.66;101684.03;5036156;28;1891;-59
2021/07/08 05:17:18;;;;;;;;;;;;;;;20.79;61.55;101701.97;5036934;28;2020;-60
2021/07/08 05:19:43;;;;;;;;;;;;;;;20.77;60.14;101690.47;5036214;28;803;-59
2021/07/08 05:22:08;;;;;;;;;;;;;;;20.76;61.36;101702.31;5036093;28;1001;-60
2021/07/08 05:24:34;;;;;;;;;;;;;;;20.74;60.62;101702.44;5042960;28;1906;-60
2021/07/08 05:26:59;;;;;;;;;;;;;;;20.72;61.39;101701.72;5049917;28;2095;-60
2021/07/08 05:29:24;;;;;;;;;;;;;;;20.72;61.30;101699.00;5036276;28;1371;-60
2021/07/08 05:31:49;;;;;;;;;;;;;;;20.72;61.84;101700.88;5036561;28;1747;-61
2021/07/08 05:34:14;;;;;;;;;;;;;;;20.71;61.49;101710.00;5044208;28;1794;-59
2021/07/08 05:36:39;;;;;;;;;;;;;;;20.69;61.21;101712.84;5040055;28;1463;-61
2021/07/08 05:39:05;;;;;;;;;;;;;;;20.71;61.70;101716.28;5035436;28;1725;-61
2021/07/08 05:41:30;;;;;;;;;;;;;;;20.70;61.06;101719.13;5035630;28;1633;-61
2021/07/08 05:43:55;;;;;;;;;;;;;;;20.70;60.86;101724.53;5036601;28;1894;-62
2021/07/08 05:46:22;;;;;;;;;;;;;;;20.68;60.81;101721.13;5034564;28;1674;-59
2021/07/08 05:48:47;;;;;;;;;;;;;;;20.68;60.87;101723.81;5035212;28;1549;-59
2021/07/08 05:51:12;;;;;;;;;;;;;;;20.68;61.22;101731.94;5035570;28;1871;-61
2021/07/08 05:53:38;;;;;;;;;;;;;;;20.68;60.76;101731.94;5035612;28;938;-61
2021/07/08 05:56:03;;;;;;;;;;;;;;;20.68;61.05;101731.94;5035703;28;1836;-61
2021/07/08 05:58:28;;;;;;;;;;;;;;;20.67;60.49;101724.81;5035907;28;918;-61
2021/07/08 06:00:53;;;;;;;;;;;;;;;20.68;60.42;101734.66;5034759;28;1874;-61
2021/07/08 06:03:18;;;;;;;;;;;;;;;20.66;60.70;101737.50;5035621;28;1897;-62
2021/07/08 06:05:43;;;;;;;;;;;;;;;20.67;60.88;101738.34;5035264;28;1624;-62
2021/07/08 06:08:08;;;;;;;;;;;;;;;20.66;60.83;101740.22;5035392;28;1620;-62
2021/07/08 06:10:33;;;;;;;;;;;;;;;20.65;61.17;101746.63;5035838;28;985;-62
2021/07/08 06:12:58;;;;;;;;;;;;;;;20.65;60.37;101751.19;5035336;28;1887;-62
2021/07/08 06:15:24;;;;;;;;;;;;;;;20.66;60.41;101750.19;5035290;28;1485;-62
2021/07/08 06:17:49;;;;;;;;;;;;;;;20.66;60.32;101748.34;5035443;28;874;-62
2021/07/08 06:20:14;;;;;;;;;;;;;;;20.68;60.83;101749.06;5035445;28;878;-60
2021/07/08 06:22:39;;;;;;;;;;;;;;;20.69;60.47;101744.50;5034751;28;1051;-60
2021/07/08 06:25:05;;;;;;;;;;;;;;;20.70;60.37;101741.66;5035569;28;1993;-60
2021/07/08 06:27:30;;;;;;;;;;;;;;;20.74;61.00;101747.63;5034787;28;2034;-60
2021/07/08 06:29:56;;;;;;;;;;;;;;;20.78;60.73;101738.22;5035028;28;1090;-63
2021/07/08 06:32:21;;;;;;;;;;;;;;;20.84;59.93;101742.19;5035184;28;1005;-60
2021/07/08 06:34:46;;;;;;;;;;;;;;;20.94;60.32;101741.19;5034893;28;1660;-61
2021/07/08 06:37:11;;;;;;;;;;;;;;;21.07;59.49;101749.88;5034952;28;1542;-61
2021/07/08 06:39:36;;;;;;;;;;;;;;;21.21;59.12;101739.59;5037223;28;1727;-61
2021/07/08 06:42:01;;;;;;;;;;;;;;;21.35;59.25;101741.81;5037934;28;1691;-61
2021/07/08 06:44:26;;;;;;;;;;;;;;;21.47;58.80;101737.94;5039775;28;1928;-61
2021/07/08 06:46:53;;;;;;;;;;;;;;;21.56;58.69;101741.63;5034838;28;1640;-61
2021/07/08 06:49:18;;;;;;;;;;;;;;;21.63;58.51;101735.47;5035112;28;1887;-61
2021/07/08 06:51:43;;;;;;;;;;;;;;;21.65;58.49;101732.59;5025709;28;1981;-61
2021/07/08 06:54:08;;;;;;;;;;;;;;;21.71;58.03;101734.69;5032611;28;1816;-61
2021/07/08 06:56:33;;;;;;;;;;;;;;;21.70;57.62;101741.97;5035005;28;989;-61
2021/07/08 06:58:58;;;;;;;;;;;;;;;21.70;57.26;101752.81;5034533;28;1590;-61
2021/07/08 07:01:23;;;;;;;;;;;;;;;21.72;57.29;101752.69;5035200;28;870;-61
2021/07/08 07:03:48;;;;;;;;;;;;;;;21.71;57.01;101757.25;5035422;28;1899;-61
2021/07/08 07:06:13;;;;;;;;;;;;;;;21.65;56.06;101754.31;5042473;28;1588;-61
2021/07/08 07:08:39;;;;;;;;;;;;;;;21.69;55.12;101759.25;5045689;28;1647;-61
2021/07/08 07:11:04;;;;;;;;;;;;;;;21.74;55.99;101765.09;5038250;28;1455;-61
2021/07/08 07:13:29;;;;;;;;;;;;;;;21.71;55.68;101769.97;5047486;28;1447;-61
2021/07/08 07:15:54;;;;;;;;;;;;;;;21.59;55.48;101774.72;5034969;28;1688;-61
2021/07/08 07:18:19;;;;;;;;;;;;;;;21.54;55.58;101777.03;5051924;28;1432;-61
2021/07/08 07:20:44;;;;;;;;;;;;;;;21.50;56.36;101780.19;5042356;28;1561;-61
2021/07/08 07:23:09;;;;;;;;;;;;;;;21.46;56.04;101782.34;5054196;28;1918;-61
2021/07/08 07:25:40;;;;;;;;;;;;;;;21.47;56.55;101792.19;5058284;28;1547;-61
2021/07/08 07:28:05;;;;;;;;;;;;;;;21.47;56.70;101789.47;5051791;28;1877;-61
2021/07/08 07:30:30;;;;;;;;;;;;;;;21.44;56.51;101784.34;5050836;28;1961;-61
2021/07/08 07:32:55;;;;;;;;;;;;;;;21.44;56.33;101777.06;5058161;28;917;-61
2021/07/08 07:35:20;;;;;;;;;;;;;;;21.44;56.35;101784.34;5057332;28;1392;-61
2021/07/08 07:37:45;;;;;;;;;;;;;;;21.39;56.23;101787.50;5042798;28;1693;-61
2021/07/08 07:40:11;;;;;;;;;;;;;;;21.41;56.36;101792.78;5050135;28;1404;-61
2021/07/08 07:42:36;;;;;;;;;;;;;;;21.46;56.59;101793.19;5037953;28;1885;-62
2021/07/08 07:45:01;;;;;;;;;;;;;;;21.55;56.86;101791.44;5048529;28;1948;-62
2021/07/08 07:47:29;;;;;;;;;;;;;;;21.68;55.98;101794.66;5049712;28;1738;-61
2021/07/08 07:49:55;;;;;;;;;;;;;;;21.71;55.41;101792.53;5044948;28;1808;-62
2021/07/08 07:52:20;;;;;;;;;;;;;;;21.79;55.89;101789.94;5052920;28;1369;-61
2021/07/08 07:54:45;;;;;;;;;;;;;;;21.94;55.44;101786.72;5051557;28;1766;-62
2021/07/08 07:57:10;;;;;;;;;;;;;;;21.91;55.27;101790.59;5042549;28;1688;-61
2021/07/08 07:59:35;;;;;;;;;;;;;;;21.87;55.17;101793.75;5047972;28;1820;-61
2021/07/08 08:02:03;;;;;;;;;;;;;;;21.75;55.70;101793.09;5046185;28;1503;-60
2021/07/08 08:04:30;;;;;;;;;;;;;;;21.74;56.15;101792.22;5049263;28;1953;-60
2021/07/08 08:09:39;;;;;;;;;;;;;;;21.59;55.81;101791.00;5046835;28;1439;-61
2021/07/08 08:12:04;;;;;;;;;;;;;;;21.55;55.84;101792.28;5056971;28;1317;-61
2021/07/08 08:14:30;;;;;;;;;;;;;;;21.57;56.17;101803.00;5040581;28;1562;-62
2021/07/08 08:16:55;;;;;;;;;;;;;;;21.55;56.25;101808.56;5051011;28;1410;-61
2021/07/08 08:19:20;;;;;;;;;;;;;;;21.59;56.03;101804.56;5040219;28;1455;-61
2021/07/08 08:21:45;;;;;;;;;;;;;;;21.59;56.08;101809.13;5047897;28;1716;-61
2021/07/08 08:24:10;;;;;;;;;;;;;;;21.60;55.96;101808.13;5048526;28;2038;-61
2021/07/08 08:26:35;;;;;;;;;;;;;;;21.61;56.58;101810.72;5050589;28;1651;-61
2021/07/08 08:29:00;;;;;;;;;;;;;;;21.66;56.54;101805.69;5050514;28;1465;-61
2021/07/08 08:31:26;;;;;;;;;;;;;;;21.66;56.18;101807.56;5046426;28;1537;-61
2021/07/08 08:33:51;;;;;;;;;;;;;;;21.69;56.79;101805.38;5048624;28;1470;-61
2021/07/08 08:36:16;;;;;;;;;;;;;;;21.65;56.06;101809.41;5047207;28;1556;-61
2021/07/08 08:38:41;;;;;;;;;;;;;;;21.64;56.06;101813.13;5047940;28;1459;-61
2021/07/08 08:41:06;;;;;;;;;;;;;;;21.67;56.50;101812.84;5046503;28;1611;-61
2021/07/08 08:43:32;;;;;;;;;;;;;;;21.69;56.53;101818.94;5047081;28;1902;-61
2021/07/08 08:45:59;;;;;;;;;;;;;;;21.65;56.62;101812.13;5048456;28;1556;-61
2021/07/08 08:48:24;;;;;;;;;;;;;;;21.68;56.39;101817.22;5055209;28;1569;-61
2021/07/08 08:50:49;;;;;;;;;;;;;;;21.70;56.65;101828.78;5036931;28;977;-61
2021/07/08 08:53:15;;;;;;;;;;;;;;;21.72;56.38;101818.66;5036581;28;1621;-61
2021/07/08 08:55:40;;;;;;;;;;;;;;;21.76;56.80;101822.78;5036127;28;1660;-61
2021/07/08 08:58:05;;;;;;;;;;;;;;;21.70;56.59;101815.22;5039265;28;1641;-61
2021/07/08 09:00:30;;;;;;;;;;;;;;;21.67;56.62;101807.41;5039751;28;1514;-61
2021/07/08 09:02:55;;;;;;;;;;;;;;;21.69;56.94;101790.97;5033181;28;2545;-61
2021/07/08 09:05:20;;;;;;;;;;;;;;;21.67;57.01;101784.84;5035683;28;2030;-62
2021/07/08 09:07:45;;;;;;;;;;;;;;;21.72;56.65;101783.38;5023190;28;1837;-62
2021/07/08 09:10:11;;;;;;;;;;;;;;;21.74;56.78;101775.09;5017820;28;1577;-62
2021/07/08 09:12:37;;;;;;;;;;;;;;;21.74;56.67;101792.22;5019785;28;2085;-61
2021/07/08 09:15:02;;;;;;;;;;;;;;;21.78;56.62;101782.78;5019955;28;1729;-63
2021/07/08 09:17:27;;;;;;;;;;;;;;;21.82;56.38;101789.63;5017910;28;1737;-61
2021/07/08 09:19:52;;;;;;;;;;;;;;;21.88;56.59;101787.31;5017936;28;1721;-62
2021/07/08 09:22:17;;;;;;;;;;;;;;;21.88;56.45;101793.59;5017210;28;1701;-61
2021/07/08 09:24:42;;;;;;;;;;;;;;;21.91;56.45;101790.59;5021236;28;2042;-61
2021/07/08 09:27:13;;;;;;;;;;;;;;;21.95;56.47;101807.44;5017968;28;2009;-61
2021/07/08 09:29:38;;;;;;;;;;;;;;;21.94;56.29;101811.16;5020492;28;1796;-61
2021/07/08 09:32:03;;;;;;;;;;;;;;;21.98;56.19;101805.28;5016737;28;1833;-62
2021/07/08 09:34:29;;;;;;;;;;;;;;;21.88;56.58;101809.88;5016180;28;1678;-62
2021/07/08 09:36:54;;;;;;;;;;;;;;;21.87;56.18;101807.31;5033631;28;1638;-61
2021/07/08 09:39:20;;;;;;;;;;;;;;;21.85;56.30;101804.78;5034637;28;1613;-61
2021/07/08 09:41:45;;;;;;;;;;;;;;;21.86;56.56;101801.03;5030282;28;1668;-61
2021/07/08 09:44:10;;;;;;;;;;;;;;;21.91;56.39;101797.88;5018933;28;1893;-62
2021/07/08 09:46:35;;;;;;;;;;;;;;;21.98;56.21;101788.13;5022110;28;1827;-61
2021/07/08 09:49:00;;;;;;;;;;;;;;;22.00;56.05;101786.16;5033619;28;2094;-61
2021/07/08 09:51:25;;;;;;;;;;;;;;;22.01;56.65;101788.72;5019125;28;1930;-60
2021/07/08 09:53:51;;;;;;;;;;;;;;;22.02;56.24;101784.16;5020908;28;2104;-61
2021/07/08 09:58:41;;;;;;;;;;;;;;;21.96;55.89;101792.84;5026641;28;1738;-60
2021/07/08 10:01:06;;;;;;;;;;;;;;;21.96;56.42;101798.28;5034820;28;1806;-61
2021/07/08 10:03:31;;;;;;;;;;;;;;;22.03;56.41;101797.56;5027466;28;1951;-61
2021/07/08 10:05:58;;;;;;;;;;;;;;;21.97;55.61;101816.28;5025423;28;1684;-61
2021/07/08 10:08:24;;;;;;;;;;;;;;;21.92;55.24;101811.28;5027730;28;1858;-60
2021/07/08 10:10:49;;;;;;;;;;;;;;;21.94;55.67;101819.28;5028392;28;1698;-61
2021/07/08 10:13:14;;;;;;;;;;;;;;;21.94;55.10;101816.56;5022216;28;2490;-61
2021/07/08 10:15:39;;;;;;;;;;;;;;;22.00;55.58;101822.31;5021756;28;1642;-61
2021/07/08 10:18:04;;;;;;;;;;;;;;;22.00;55.78;101829.59;5017325;28;1647;-61
2021/07/08 10:20:29;;;;;;;;;;;;;;;22.07;55.57;101833.41;5034265;28;1620;-62
2021/07/08 10:22:54;;;;;;;;;;;;;;;22.11;55.93;101832.94;5034477;28;1976;-62
2021/07/08 10:25:19;;;;;;;;;;;;;;;22.10;55.59;101835.81;5034879;28;1976;-61
2021/07/08 10:27:45;;;;;;;;;;;;;;;22.15;56.16;101828.94;5034850;28;1731;-61
2021/07/08 10:30:10;;;;;;;;;;;;;;;22.16;55.24;101824.34;5034821;28;1639;-61
2021/07/08 10:32:35;;;;;;;;;;;;;;;22.14;54.76;101829.94;5034805;28;1689;-61
2021/07/08 10:35:00;;;;;;;;;;;;;;;22.14;54.99;101834.50;5034806;28;1647;-61
2021/07/08 10:37:26;;;;;;;;;;;;;;;22.15;54.98;101842.50;5034582;28;1698;-61
2021/07/08 10:39:51;;;;;;;;;;;;;;;22.19;54.74;101843.06;5034491;28;1642;-61
2021/07/08 10:42:16;;;;;;;;;;;;;;;22.18;54.59;101857.66;5034229;28;1730;-62
2021/07/08 10:44:41;;;;;;;;;;;;;;;22.19;54.25;101856.66;5035554;28;1894;-61
2021/07/08 10:47:06;;;;;;;;;;;;;;;22.21;54.55;101854.63;5034799;28;922;-61
2021/07/08 10:49:31;;;;;;;;;;;;;;;22.19;54.42;101834.94;5034392;28;1760;-61
2021/07/08 10:51:56;;;;;;;;;;;;;;;22.22;54.75;101840.03;5035695;28;1417;-61
2021/07/08 10:54:22;;;;;;;;;;;;;;;22.23;55.20;101830.88;5038869;28;1649;-62
2021/07/08 10:56:47;;;;;;;;;;;;;;;22.24;55.16;101827.16;5038458;28;1676;-61
2021/07/08 10:59:12;;;;;;;;;;;;;;;22.20;55.16;101812.19;5038304;28;1650;-61
2021/07/08 11:01:37;;;;;;;;;;;;;;;22.23;55.00;101809.16;5038599;28;1375;-61
2021/07/08 11:04:02;;;;;;;;;;;;;;;22.24;54.87;101810.88;5040506;28;1957;-61
2021/07/08 11:06:31;;;;;;;;;;;;;;;22.21;55.31;101815.78;5040668;28;1355;-62
2021/07/08 11:08:57;;;;;;;;;;;;;;;22.25;55.25;101815.28;5038674;28;1463;-61
2021/07/08 11:11:22;;;;;;;;;;;;;;;22.31;54.85;101813.84;5041842;28;1617;-61
2021/07/08 11:13:47;;;;;;;;;;;;;;;22.28;55.56;101817.72;5055744;28;1709;-61
2021/07/08 11:16:12;;;;;;;;;;;;;;;22.31;54.79;101809.25;5038900;28;1592;-61
2021/07/08 11:18:37;;;;;;;;;;;;;;;22.31;54.73;101809.25;5051837;28;1421;-61
2021/07/08 11:21:02;;;;;;;;;;;;;;;22.37;55.28;101805.09;5041828;28;1542;-61
2021/07/08 11:23:27;;;;;;;;;;;;;;;22.43;56.00;101794.44;5054546;28;1918;-60
2021/07/08 11:25:53;;;;;;;;;;;;;;;22.33;55.32;101793.66;5038770;28;1005;-61
2021/07/08 11:28:18;;;;;;;;;;;;;;;22.26;56.22;101787.13;5040820;28;1989;-61
2021/07/08 11:30:43;;;;;;;;;;;;;;;22.28;59.66;101801.41;5039383;28;1609;-61
2021/07/08 11:33:08;;;;;;;;;;;;;;;22.25;56.74;101796.28;5041900;28;1711;-61
2021/07/08 11:35:35;;;;;;;;;;;;;;;22.23;57.22;101798.28;5052019;28;1680;-61
2021/07/08 11:38:01;;;;;;;;;;;;;;;22.25;58.44;101785.41;5037194;28;1716;-61
2021/07/08 11:40:26;;;;;;;;;;;;;;;22.26;58.35;101781.69;5044750;28;1473;-61
2021/07/08 11:42:51;;;;;;;;;;;;;;;22.32;58.69;101775.66;5042186;28;1789;-61
2021/07/08 11:45:16;;;;;;;;;;;;;;;22.33;58.57;101779.25;5041517;28;1890;-61
2021/07/08 11:47:41;;;;;;;;;;;;;;;22.37;57.15;101778.78;5035930;28;1575;-61
2021/07/08 11:50:06;;;;;;;;;;;;;;;22.36;57.72;101789.81;5037340;28;1705;-61
2021/07/08 11:52:31;;;;;;;;;;;;;;;22.37;58.42;101795.09;5039451;28;1651;-61
2021/07/08 11:54:57;;;;;;;;;;;;;;;22.40;57.23;101789.31;5038920;28;1782;-61
2021/07/08 11:57:22;;;;;;;;;;;;;;;22.36;57.87;101797.94;5039282;28;1631;-61
2021/07/08 11:59:47;;;;;;;;;;;;;;;22.35;57.75;101790.81;5037293;28;1555;-61
2021/07/08 12:02:12;;;;;;;;;;;;;;;22.37;58.02;101784.22;5038459;28;1622;-61
2021/07/08 12:04:37;;;;;;;;;;;;;;;22.31;59.71;101787.53;5036679;28;1890;-60
2021/07/08 12:07:02;;;;;;;;;;;;;;;22.37;57.13;101776.06;5038171;28;1580;-61
2021/07/08 12:09:28;;;;;;;;;;;;;;;22.39;58.14;101782.19;5038978;28;1765;-61
2021/07/08 12:11:53;;;;;;;;;;;;;;;22.39;57.73;101782.19;5036398;28;1669;-62
2021/07/08 12:14:20;;;;;;;;;;;;;;;22.40;58.24;101792.03;5037346;28;1610;-61
2021/07/08 12:16:45;;;;;;;;;;;;;;;22.33;58.81;101793.66;5037359;28;1706;-58
2021/07/08 12:19:10;;;;;;;;;;;;;;;22.38;58.13;101796.78;5037523;28;1624;-59
2021/07/08 12:21:35;;;;;;;;;;;;;;;22.35;57.76;101794.38;5037535;28;946;-59
2021/07/08 12:24:00;;;;;;;;;;;;;;;22.27;57.22;101788.84;5036873;28;1902;-59
2021/07/08 12:26:26;;;;;;;;;;;;;;;22.30;58.35;101785.81;5036841;28;1649;-56
2021/07/08 12:28:51;;;;;;;;;;;;;;;22.31;58.44;101783.97;5036504;28;1682;-56
2021/07/08 12:31:18;;;;;;;;;;;;;;;22.32;58.99;101788.38;5036482;28;1732;-57
2021/07/08 12:33:43;;;;;;;;;;;;;;;22.30;60.12;101793.97;5035640;28;1654;-56
2021/07/08 12:36:09;;;;;;;;;;;;;;;22.26;59.08;101795.28;5037160;28;989;-55
2021/07/08 12:38:34;;;;;;;;;;;;;;;22.25;60.38;101799.00;5037168;28;1637;-57
2021/07/08 12:40:59;;;;;;;;;;;;;;;22.24;57.92;101800.00;5036557;28;1512;-55